Honjo, Japan
Current Conditions -  °F | °C
As of 10:00 AM on Thursday 18 Dec 2014 (Local Time) from RJSK Reporting Station
Snow Showers Snow Showers  
Wind Chill: 30°   Ceiling: 2500
Heat Index: 37°   Visibility: 5mi
Dew Point: 30°   Wind: 12mph
Humidity: 75%   Direction: 330°NNW
Pressure: 29.65"   Gusts: NA
Location:  39.39°N, 140.08°E
Report Text: RJSK 180100Z 33010KT 280V360 8000 -SHRASN FEW008 SCT015 BKN025 03/M01 Q1004
Loading
Personal Weather Stations






























Interactive Weather Map New forecast layout! Learn more

10-Day Weather Forecast

Advertisements
Track Severe Weather on mobile